Time;durP1;ratioP1;P1;durP2;ratioP2;P2;SDS_P1;SDS_P2;PMS_P1;PMS_P2;Temp;Humidity;BMP_temperature;BMP_pressure;BME280_temperature;BME280_humidity;BME280_pressure;Samples;Min_cycle;Max_cycle;Signal;HPM_P1;HPM_P2
2024/03/29 01:44:30;;;;;;;2.80;0.80;;;;;;;;;;5091276;28;20293;-78
2024/03/29 01:46:59;;;;;;;1.37;0.90;;;;;;;;;;5091672;28;20230;-77
2024/03/29 01:49:26;;;;;;;2.33;0.90;;;;;;;;;;5091557;28;20234;-77
2024/03/29 01:51:54;;;;;;;1.33;0.70;;;;;;;;;;5092086;28;20285;-79
2024/03/29 01:54:21;;;;;;;0.50;0.37;;;;;;;;;;5091842;28;20670;-78
2024/03/29 01:56:48;;;;;;;1.17;0.30;;;;;;;;;;5091133;28;20206;-79
2024/03/29 01:59:17;;;;;;;1.13;0.40;;;;;;;;;;5091872;28;20218;-78
2024/03/29 02:01:44;;;;;;;0.70;0.40;;;;;;;;;;5091895;28;20693;-79
2024/03/29 02:04:13;;;;;;;1.03;0.30;;;;;;;;;;5091552;28;20194;-78
2024/03/29 02:06:40;;;;;;;0.50;0.20;;;;;;;;;;5091677;28;20202;-79
2024/03/29 02:09:07;;;;;;;1.50;0.30;;;;;;;;;;5091252;28;20225;-77
2024/03/29 02:11:35;;;;;;;1.03;0.30;;;;;;;;;;5090559;28;20205;-79
2024/03/29 02:14:02;;;;;;;0.57;0.23;;;;;;;;;;5091274;28;20237;-77
2024/03/29 02:16:28;;;;;;;0.80;0.50;;;;;;;;;;5091411;28;20683;-77
2024/03/29 02:18:56;;;;;;;1.40;0.37;;;;;;;;;;5091241;28;20233;-78
2024/03/29 02:21:24;;;;;;;1.57;0.40;;;;;;;;;;5091456;28;20190;-78
2024/03/29 02:23:59;;;;;;;0.90;0.30;;;;;;;;;;5091253;28;20244;-77
2024/03/29 02:26:31;;;;;;;1.07;0.37;;;;;;;;;;5091019;28;20200;-78
2024/03/29 02:28:58;;;;;;;0.83;0.30;;;;;;;;;;5091403;28;20222;-78
2024/03/29 02:31:25;;;;;;;1.23;0.30;;;;;;;;;;5092350;28;20289;-78
2024/03/29 02:33:53;;;;;;;0.87;0.20;;;;;;;;;;5098032;28;20198;-78
2024/03/29 02:36:20;;;;;;;0.70;0.40;;;;;;;;;;5098284;28;20202;-79
2024/03/29 02:38:47;;;;;;;0.60;0.20;;;;;;;;;;5097760;28;20195;-78
2024/03/29 02:41:16;;;;;;;1.50;0.30;;;;;;;;;;5097585;28;20201;-78
2024/03/29 02:43:42;;;;;;;1.00;0.43;;;;;;;;;;5097865;28;20732;-77
2024/03/29 02:46:09;;;;;;;0.70;0.37;;;;;;;;;;5097823;28;20204;-77
2024/03/29 02:48:36;;;;;;;0.40;0.20;;;;;;;;;;5097793;28;20771;-78
2024/03/29 02:51:03;;;;;;;0.43;0.30;;;;;;;;;;5098027;28;20224;-77
2024/03/29 02:53:29;;;;;;;0.50;0.23;;;;;;;;;;5097312;28;20254;-77
2024/03/29 02:55:56;;;;;;;1.60;0.23;;;;;;;;;;5097634;28;20281;-78
2024/03/29 02:58:24;;;;;;;0.53;0.30;;;;;;;;;;5098262;28;20271;-78
2024/03/29 03:00:51;;;;;;;1.23;0.40;;;;;;;;;;5097940;28;20271;-78
2024/03/29 03:03:18;;;;;;;0.83;0.40;;;;;;;;;;5097702;28;20670;-79
2024/03/29 03:05:45;;;;;;;0.80;0.40;;;;;;;;;;5097503;28;20285;-78
2024/03/29 03:10:59;;;;;;;0.70;0.23;;;;;;;;;;5094268;28;20217;-78
2024/03/29 03:13:28;;;;;;;1.10;0.30;;;;;;;;;;5097660;28;20195;-78
2024/03/29 03:15:54;;;;;;;1.83;0.37;;;;;;;;;;5097585;28;20686;-77
2024/03/29 03:18:21;;;;;;;1.73;0.20;;;;;;;;;;5097584;28;20675;-77
2024/03/29 03:20:51;;;;;;;0.73;0.20;;;;;;;;;;5097242;28;20198;-79
2024/03/29 03:23:18;;;;;;;2.23;0.37;;;;;;;;;;5097135;28;20260;-78
2024/03/29 03:25:45;;;;;;;2.10;0.30;;;;;;;;;;5097648;28;20253;-78
2024/03/29 03:28:12;;;;;;;1.97;0.50;;;;;;;;;;5097598;28;20225;-78
2024/03/29 03:30:40;;;;;;;0.50;0.30;;;;;;;;;;5097220;28;20195;-78
2024/03/29 03:33:08;;;;;;;1.37;0.20;;;;;;;;;;5097331;28;20300;-78
2024/03/29 03:35:34;;;;;;;0.50;0.20;;;;;;;;;;5097706;28;20775;-77
2024/03/29 03:38:01;;;;;;;0.67;0.37;;;;;;;;;;5096935;28;20371;-78
2024/03/29 03:40:28;;;;;;;1.27;0.30;;;;;;;;;;5097468;28;20205;-78
2024/03/29 03:42:55;;;;;;;1.33;0.30;;;;;;;;;;5096332;28;20199;-78
2024/03/29 03:45:22;;;;;;;1.07;0.20;;;;;;;;;;5093851;28;20290;-78
2024/03/29 03:47:51;;;;;;;0.33;0.20;;;;;;;;;;5094061;28;20305;-78
2024/03/29 03:50:17;;;;;;;1.80;0.20;;;;;;;;;;5094092;28;20667;-78
2024/03/29 03:52:44;;;;;;;0.83;0.30;;;;;;;;;;5093818;28;20293;-79
2024/03/29 03:55:10;;;;;;;0.60;0.23;;;;;;;;;;5093862;28;20315;-79
2024/03/29 03:57:37;;;;;;;1.17;0.40;;;;;;;;;;5094625;28;20213;-78
2024/03/29 04:00:04;;;;;;;2.93;0.33;;;;;;;;;;5093965;28;20662;-79
2024/03/29 04:02:31;;;;;;;1.47;0.37;;;;;;;;;;5093746;28;20221;-79
2024/03/29 04:04:59;;;;;;;2.80;0.40;;;;;;;;;;5093872;28;20195;-79
2024/03/29 04:07:27;;;;;;;1.27;0.30;;;;;;;;;;5093268;28;20643;-77
2024/03/29 04:09:53;;;;;;;1.60;0.40;;;;;;;;;;5093677;28;20194;-78
2024/03/29 04:12:20;;;;;;;3.47;0.40;;;;;;;;;;5093809;28;20211;-78
2024/03/29 04:14:46;;;;;;;0.50;0.30;;;;;;;;;;5093608;28;20290;-80
2024/03/29 04:17:13;;;;;;;1.63;0.57;;;;;;;;;;5093518;28;20198;-79
2024/03/29 04:19:40;;;;;;;0.53;0.30;;;;;;;;;;5093365;28;20194;-79
2024/03/29 04:22:08;;;;;;;2.73;0.50;;;;;;;;;;5093191;28;20251;-79
2024/03/29 04:24:34;;;;;;;2.60;0.40;;;;;;;;;;5093226;28;20226;-79
2024/03/29 04:27:03;;;;;;;2.30;0.50;;;;;;;;;;5094016;28;20663;-78
2024/03/29 04:29:30;;;;;;;2.87;0.50;;;;;;;;;;5093243;28;20272;-78
2024/03/29 04:31:57;;;;;;;1.60;0.50;;;;;;;;;;5093079;28;20202;-78
2024/03/29 04:34:23;;;;;;;3.50;0.70;;;;;;;;;;5093366;28;20291;-79
2024/03/29 04:36:50;;;;;;;2.43;0.50;;;;;;;;;;5093084;28;20198;-78
2024/03/29 04:39:19;;;;;;;1.37;0.50;;;;;;;;;;5093221;28;20256;-77
2024/03/29 04:41:45;;;;;;;3.43;0.67;;;;;;;;;;5093216;28;20629;-79
2024/03/29 04:44:13;;;;;;;2.40;0.80;;;;;;;;;;5092965;28;20289;-78
2024/03/29 04:46:41;;;;;;;2.50;0.50;;;;;;;;;;5093160;28;20190;-78
2024/03/29 04:49:08;;;;;;;5.63;0.60;;;;;;;;;;5093045;28;20268;-79
2024/03/29 04:51:35;;;;;;;4.43;0.87;;;;;;;;;;5092695;28;20217;-80
2024/03/29 04:54:02;;;;;;;5.30;0.80;;;;;;;;;;5092800;28;20194;-78
2024/03/29 04:56:32;;;;;;;2.90;0.70;;;;;;;;;;5091701;28;20680;-79
2024/03/29 04:58:59;;;;;;;3.97;0.63;;;;;;;;;;5092879;28;20667;-79
2024/03/29 05:01:26;;;;;;;2.67;0.70;;;;;;;;;;5092513;28;20202;-79
2024/03/29 05:03:54;;;;;;;3.77;0.70;;;;;;;;;;5091862;28;20190;-78
2024/03/29 05:06:21;;;;;;;4.27;0.60;;;;;;;;;;5092669;28;20243;-79
2024/03/29 05:08:48;;;;;;;3.43;0.73;;;;;;;;;;5092383;28;20261;-78
2024/03/29 05:11:15;;;;;;;2.20;0.63;;;;;;;;;;5092784;28;20190;-78
2024/03/29 05:13:44;;;;;;;1.70;0.73;;;;;;;;;;5092527;28;20229;-78
2024/03/29 05:16:11;;;;;;;4.20;1.00;;;;;;;;;;5092696;28;20252;-78
2024/03/29 05:18:38;;;;;;;6.57;0.80;;;;;;;;;;5092036;28;20240;-78
2024/03/29 05:21:06;;;;;;;2.40;0.80;;;;;;;;;;5092622;28;20655;-79
2024/03/29 05:23:33;;;;;;;2.17;0.60;;;;;;;;;;5092654;28;20240;-78
2024/03/29 05:26:03;;;;;;;2.93;0.70;;;;;;;;;;5091669;28;20248;-77
2024/03/29 05:28:30;;;;;;;3.87;0.80;;;;;;;;;;5092385;28;20323;-80
2024/03/29 05:31:12;;;;;;;2.43;0.90;;;;;;;;;;5092213;28;20198;-78
2024/03/29 05:33:39;;;;;;;2.53;1.00;;;;;;;;;;5092224;28;20194;-79
2024/03/29 05:36:08;;;;;;;6.43;1.00;;;;;;;;;;5092195;28;20205;-79
2024/03/29 05:38:35;;;;;;;4.67;1.10;;;;;;;;;;5091975;28;20306;-78
2024/03/29 05:41:02;;;;;;;5.13;1.00;;;;;;;;;;5092293;28;20255;-79
2024/03/29 05:43:30;;;;;;;5.43;0.93;;;;;;;;;;5091920;28;20218;-79
2024/03/29 05:45:57;;;;;;;3.90;0.90;;;;;;;;;;5091730;28;20201;-79
2024/03/29 05:48:26;;;;;;;3.17;0.80;;;;;;;;;;5092145;28;20303;-79
2024/03/29 05:50:53;;;;;;;5.63;1.10;;;;;;;;;;5091815;28;20199;-79
2024/03/29 05:53:20;;;;;;;5.07;1.10;;;;;;;;;;5091969;28;20190;-79
2024/03/29 05:55:47;;;;;;;6.57;1.13;;;;;;;;;;5091741;28;20315;-78
2024/03/29 05:58:17;;;;;;;5.17;1.00;;;;;;;;;;5091534;28;20263;-80
2024/03/29 06:00:44;;;;;;;3.30;0.80;;;;;;;;;;5091866;28;20281;-77
2024/03/29 06:03:11;;;;;;;2.60;0.80;;;;;;;;;;5091308;28;20674;-77
2024/03/29 06:05:41;;;;;;;5.67;1.10;;;;;;;;;;5091550;28;20240;-80
2024/03/29 06:08:09;;;;;;;4.60;1.27;;;;;;;;;;5091073;28;20194;-80
2024/03/29 06:10:36;;;;;;;4.37;1.50;;;;;;;;;;5091985;28;20247;-80
2024/03/29 06:13:07;;;;;;;5.33;1.10;;;;;;;;;;5091487;28;20578;-79
2024/03/29 06:18:19;;;;;;;5.43;1.10;;;;;;;;;;5090799;28;20201;-79
2024/03/29 06:20:48;;;;;;;5.30;1.27;;;;;;;;;;5091910;28;20225;-81
2024/03/29 06:23:15;;;;;;;6.67;1.47;;;;;;;;;;5091559;28;20244;-80
2024/03/29 06:25:43;;;;;;;2.93;1.40;;;;;;;;;;5090902;28;20287;-80
2024/03/29 06:28:10;;;;;;;3.80;1.40;;;;;;;;;;5091546;28;20199;-80
2024/03/29 06:30:37;;;;;;;4.70;1.40;;;;;;;;;;5091354;28;20214;-80
2024/03/29 06:33:05;;;;;;;4.60;1.40;;;;;;;;;;5090713;28;20229;-80
2024/03/29 06:35:32;;;;;;;7.43;2.00;;;;;;;;;;5091269;28;20214;-80
2024/03/29 06:38:01;;;;;;;4.47;1.57;;;;;;;;;;5084511;28;20194;-80
2024/03/29 06:40:28;;;;;;;5.00;1.87;;;;;;;;;;5082492;28;20198;-80
2024/03/29 06:42:58;;;;;;;7.03;1.70;;;;;;;;;;5089459;28;20655;-80
2024/03/29 06:45:25;;;;;;;5.07;1.73;;;;;;;;;;5083524;28;20256;-80
2024/03/29 06:47:52;;;;;;;6.60;2.17;;;;;;;;;;5085964;28;20675;-80
2024/03/29 06:50:20;;;;;;;9.10;1.83;;;;;;;;;;5086362;28;20996;-80
2024/03/29 06:52:47;;;;;;;6.37;2.10;;;;;;;;;;5087113;28;20206;-78
2024/03/29 06:55:15;;;;;;;7.90;1.90;;;;;;;;;;5090547;28;20268;-79
2024/03/29 06:57:44;;;;;;;6.80;1.83;;;;;;;;;;5091011;28;20191;-80
2024/03/29 07:00:12;;;;;;;5.60;1.70;;;;;;;;;;5090246;28;20248;-80
2024/03/29 07:02:39;;;;;;;5.93;1.60;;;;;;;;;;5090729;28;20195;-80
2024/03/29 07:05:07;;;;;;;8.50;1.60;;;;;;;;;;5091348;28;20199;-79
2024/03/29 07:07:35;;;;;;;5.43;1.50;;;;;;;;;;5090254;28;20260;-79
2024/03/29 07:10:02;;;;;;;4.47;1.53;;;;;;;;;;5090572;28;20313;-79
2024/03/29 07:12:30;;;;;;;4.57;1.63;;;;;;;;;;5090480;28;20289;-78
2024/03/29 07:14:58;;;;;;;4.27;1.27;;;;;;;;;;5090933;28;20260;-79
2024/03/29 07:17:25;;;;;;;10.17;1.43;;;;;;;;;;5090339;28;20720;-79
2024/03/29 07:19:52;;;;;;;6.00;1.50;;;;;;;;;;5093663;28;20263;-78
2024/03/29 07:22:20;;;;;;;8.43;1.13;;;;;;;;;;5094525;28;20252;-80
2024/03/29 07:24:47;;;;;;;5.40;1.10;;;;;;;;;;5093277;28;20718;-79
2024/03/29 07:27:16;;;;;;;6.93;1.30;;;;;;;;;;5094735;28;20198;-78
2024/03/29 07:29:45;;;;;;;4.53;1.47;;;;;;;;;;5093834;28;20312;-79
2024/03/29 07:32:12;;;;;;;4.33;1.13;;;;;;;;;;5093959;28;20259;-78
2024/03/29 07:34:40;;;;;;;6.10;1.20;;;;;;;;;;5094451;28;20203;-79
2024/03/29 07:37:09;;;;;;;6.63;1.35;;;;;;;;;;5094098;28;20244;-80
2024/03/29 07:39:39;;;;;;;3.53;1.05;;;;;;;;;;5094140;28;20234;-79
2024/03/29 07:42:06;;;;;;;6.13;1.30;;;;;;;;;;5094240;28;20239;-79
2024/03/29 07:44:33;;;;;;;8.27;1.60;;;;;;;;;;5093826;28;20260;-79
2024/03/29 07:47:02;;;;;;;4.17;1.10;;;;;;;;;;5093953;28;20275;-78
2024/03/29 07:49:29;;;;;;;4.13;1.00;;;;;;;;;;5094175;28;20229;-79
2024/03/29 07:51:56;;;;;;;2.47;1.03;;;;;;;;;;5093637;28;20194;-78
2024/03/29 07:54:24;;;;;;;2.33;0.70;;;;;;;;;;5093657;28;20199;-79
2024/03/29 07:56:51;;;;;;;3.07;1.40;;;;;;;;;;5092998;28;20198;-79
2024/03/29 07:59:19;;;;;;;3.17;1.20;;;;;;;;;;5093147;28;20198;-80
2024/03/29 08:01:47;;;;;;;3.93;1.30;;;;;;;;;;5093874;28;20191;-79
2024/03/29 08:04:15;;;;;;;2.00;0.70;;;;;;;;;;5093679;28;20703;-79
2024/03/29 08:06:42;;;;;;;4.23;0.70;;;;;;;;;;5093594;28;20226;-79
2024/03/29 08:09:10;;;;;;;4.07;1.13;;;;;;;;;;5093537;28;20218;-80
2024/03/29 08:11:37;;;;;;;2.37;1.30;;;;;;;;;;5093091;28;20222;-81
2024/03/29 08:14:04;;;;;;;3.47;1.43;;;;;;;;;;5092940;28;20198;-80
2024/03/29 08:16:32;;;;;;;3.07;1.00;;;;;;;;;;5093581;28;20190;-79
2024/03/29 08:18:59;;;;;;;4.00;1.70;;;;;;;;;;5093756;28;20195;-79
2024/03/29 08:21:28;;;;;;;4.90;1.77;;;;;;;;;;5092879;28;20334;-79
2024/03/29 08:23:56;;;;;;;3.83;0.80;;;;;;;;;;5093575;28;20199;-80
2024/03/29 08:26:24;;;;;;;3.87;1.10;;;;;;;;;;5092903;28;20221;-79
2024/03/29 08:28:51;;;;;;;4.40;1.83;;;;;;;;;;5093030;28;20279;-80
2024/03/29 08:31:19;;;;;;;6.00;1.97;;;;;;;;;;5092484;28;20234;-79
2024/03/29 08:33:46;;;;;;;4.50;1.20;;;;;;;;;;5092622;28;20201;-79
2024/03/29 08:36:13;;;;;;;6.57;1.60;;;;;;;;;;5092995;28;20194;-80
2024/03/29 08:38:43;;;;;;;5.93;1.60;;;;;;;;;;5093270;28;20248;-79
2024/03/29 08:41:10;;;;;;;6.93;1.90;;;;;;;;;;5090776;28;20632;-79
2024/03/29 08:43:37;;;;;;;5.53;1.50;;;;;;;;;;5092592;28;20194;-79
2024/03/29 08:46:05;;;;;;;3.33;1.27;;;;;;;;;;5091936;28;20229;-80
2024/03/29 08:48:32;;;;;;;5.50;1.47;;;;;;;;;;5092766;28;20228;-78
2024/03/29 08:50:59;;;;;;;4.23;1.20;;;;;;;;;;5092709;28;20653;-80
2024/03/29 08:53:27;;;;;;;7.60;1.70;;;;;;;;;;5092242;28;20268;-79
2024/03/29 08:55:55;;;;;;;5.27;1.63;;;;;;;;;;5092154;28;20731;-79
2024/03/29 08:58:23;;;;;;;4.17;1.60;;;;;;;;;;5092212;28;20290;-79
2024/03/29 09:00:55;;;;;;;7.07;1.60;;;;;;;;;;5092292;28;20195;-79
2024/03/29 09:03:22;;;;;;;6.77;1.53;;;;;;;;;;5092542;28;20194;-79
2024/03/29 09:05:49;;;;;;;6.60;1.35;;;;;;;;;;5092057;28;20191;-80
2024/03/29 09:08:17;;;;;;;6.40;1.50;;;;;;;;;;5091155;28;20220;-80
2024/03/29 09:10:44;;;;;;;8.05;1.48;;;;;;;;;;5091066;28;20725;-79
2024/03/29 09:13:12;;;;;;;6.18;1.50;;;;;;;;;;5091295;28;20195;-80
2024/03/29 09:15:40;;;;;;;7.38;1.25;;;;;;;;;;5091423;28;20199;-79
2024/03/29 09:18:16;;;;;;;6.30;1.40;;;;;;;;;;5091913;28;20282;-79
2024/03/29 09:20:44;;;;;;;4.38;1.30;;;;;;;;;;5091823;28;20194;-78
2024/03/29 09:23:12;;;;;;;5.93;1.42;;;;;;;;;;5091899;28;20237;-80
2024/03/29 09:25:41;;;;;;;9.55;1.40;;;;;;;;;;5091245;28;20226;-79
2024/03/29 09:28:10;;;;;;;6.53;1.40;;;;;;;;;;5091800;28;20206;-79
2024/03/29 09:30:38;;;;;;;6.95;1.10;;;;;;;;;;5091501;28;20230;-79
2024/03/29 09:33:07;;;;;;;5.05;1.20;;;;;;;;;;5091766;28;20256;-80
2024/03/29 09:35:34;;;;;;;7.95;1.55;;;;;;;;;;5092448;28;20613;-80
2024/03/29 09:38:03;;;;;;;7.03;1.48;;;;;;;;;;5091760;28;20195;-79
2024/03/29 09:40:31;;;;;;;6.50;1.40;;;;;;;;;;5091845;28;20199;-79
2024/03/29 09:43:02;;;;;;;4.22;1.17;;;;;;;;;;5090991;28;20194;-79
2024/03/29 09:45:32;;;;;;;3.33;0.80;;;;;;;;;;5091066;28;20198;-80
2024/03/29 09:48:01;;;;;;;3.50;0.93;;;;;;;;;;5090016;28;20285;-80
2024/03/29 09:50:28;;;;;;;4.88;0.95;;;;;;;;;;5091396;28;20791;-78
2024/03/29 09:52:56;;;;;;;4.75;1.38;;;;;;;;;;5091098;28;20194;-78
2024/03/29 09:55:24;;;;;;;4.38;1.08;;;;;;;;;;5090802;28;20198;-79
2024/03/29 09:57:52;;;;;;;4.15;1.13;;;;;;;;;;5091681;28;20699;-80
2024/03/29 10:00:19;;;;;;;5.10;1.00;;;;;;;;;;5091451;28;20636;-80
2024/03/29 10:02:47;;;;;;;7.35;1.20;;;;;;;;;;5091411;28;20268;-80
2024/03/29 10:05:16;;;;;;;3.90;1.00;;;;;;;;;;5091480;28;20195;-80
2024/03/29 10:07:43;;;;;;;4.70;1.00;;;;;;;;;;5091093;28;20298;-79
2024/03/29 10:10:12;;;;;;;3.42;0.80;;;;;;;;;;5090706;28;20225;-80
2024/03/29 10:12:39;;;;;;;5.68;1.17;;;;;;;;;;5091147;28;20202;-80
2024/03/29 10:15:10;;;;;;;4.60;1.00;;;;;;;;;;5091307;28;20674;-80
2024/03/29 10:17:38;;;;;;;2.78;0.80;;;;;;;;;;5091232;28;20194;-80
2024/03/29 10:20:05;;;;;;;4.35;1.10;;;;;;;;;;5091115;28;20747;-79
2024/03/29 10:22:43;;;;;;;5.50;1.02;;;;;;;;;;5090712;28;20252;-79
2024/03/29 10:25:10;;;;;;;5.65;1.27;;;;;;;;;;5090053;28;20226;-79
2024/03/29 10:27:37;;;;;;;5.10;1.10;;;;;;;;;;5089997;28;20611;-80
2024/03/29 10:30:05;;;;;;;4.18;1.38;;;;;;;;;;5090647;28;20230;-78
2024/03/29 10:32:32;;;;;;;6.07;1.33;;;;;;;;;;5091380;28;20251;-79
2024/03/29 10:35:02;;;;;;;5.05;0.90;;;;;;;;;;5091348;28;20617;-79
2024/03/29 10:37:32;;;;;;;8.05;1.27;;;;;;;;;;5090152;28;20248;-79
2024/03/29 10:40:03;;;;;;;5.88;1.10;;;;;;;;;;5089340;28;20679;-79
2024/03/29 10:42:32;;;;;;;5.45;1.20;;;;;;;;;;5091392;28;20194;-79
2024/03/29 10:45:01;;;;;;;5.07;1.27;;;;;;;;;;5091439;28;20198;-80
2024/03/29 10:47:29;;;;;;;5.60;1.42;;;;;;;;;;5091098;28;20209;-81
2024/03/29 10:49:58;;;;;;;4.65;1.17;;;;;;;;;;5091304;28;20222;-81
2024/03/29 10:52:26;;;;;;;5.95;1.40;;;;;;;;;;5091721;28;20632;-81
2024/03/29 10:54:54;;;;;;;6.22;1.45;;;;;;;;;;5095392;28;20298;-81
2024/03/29 10:57:24;;;;;;;6.13;1.42;;;;;;;;;;5095357;28;20198;-80
2024/03/29 10:59:56;;;;;;;7.05;1.27;;;;;;;;;;5095333;28;20293;-81
2024/03/29 11:02:30;;;;;;;4.32;0.90;;;;;;;;;;5095279;28;20200;-80
2024/03/29 11:04:58;;;;;;;2.95;0.70;;;;;;;;;;5095051;28;20256;-81
2024/03/29 11:07:26;;;;;;;4.80;0.77;;;;;;;;;;5095148;28;20190;-80
2024/03/29 11:09:56;;;;;;;5.80;1.10;;;;;;;;;;5094884;28;20222;-81
2024/03/29 11:12:25;;;;;;;2.75;0.80;;;;;;;;;;5095120;28;20190;-81
2024/03/29 11:14:55;;;;;;;3.15;1.13;;;;;;;;;;5094945;28;20251;-81
2024/03/29 11:17:23;;;;;;;2.55;1.02;;;;;;;;;;5094921;28;20684;-80
2024/03/29 11:19:51;;;;;;;3.85;0.80;;;;;;;;;;5094669;28;20198;-81
2024/03/29 11:22:18;;;;;;;3.10;0.70;;;;;;;;;;5094940;28;20267;-81
2024/03/29 11:24:45;;;;;;;4.57;1.00;;;;;;;;;;5094830;28;20230;-81
2024/03/29 11:27:13;;;;;;;3.35;0.65;;;;;;;;;;5093984;28;20220;-81
2024/03/29 11:29:45;;;;;;;4.32;0.98;;;;;;;;;;5094858;28;20233;-81
2024/03/29 11:32:13;;;;;;;3.05;1.10;;;;;;;;;;5094674;28;20234;-81
2024/03/29 11:34:45;;;;;;;4.90;0.63;;;;;;;;;;5094477;28;20198;-80
2024/03/29 11:37:13;;;;;;;5.45;0.82;;;;;;;;;;5094056;28;20277;-80
2024/03/29 11:39:41;;;;;;;4.68;0.90;;;;;;;;;;5095100;28;20279;-80
2024/03/29 11:42:08;;;;;;;4.78;0.77;;;;;;;;;;5094272;28;20589;-80
2024/03/29 11:44:36;;;;;;;4.15;0.98;;;;;;;;;;5093998;28;20285;-80
2024/03/29 11:47:06;;;;;;;4.60;1.10;;;;;;;;;;5094655;28;20202;-80
2024/03/29 11:49:34;;;;;;;4.82;1.02;;;;;;;;;;5094898;28;20194;-82
2024/03/29 11:52:05;;;;;;;7.10;1.40;;;;;;;;;;5094141;28;20261;-81
2024/03/29 11:54:38;;;;;;;4.80;1.17;;;;;;;;;;5094231;28;20293;-81
2024/03/29 11:57:06;;;;;;;7.13;1.20;;;;;;;;;;5094307;28;20198;-81
2024/03/29 11:59:33;;;;;;;4.22;0.88;;;;;;;;;;5094630;28;20230;-81
2024/03/29 12:02:00;;;;;;;3.75;0.82;;;;;;;;;;5093971;28;20687;-79
2024/03/29 12:04:29;;;;;;;6.93;1.08;;;;;;;;;;5092724;28;20202;-81
2024/03/29 12:06:56;;;;;;;5.53;1.08;;;;;;;;;;5094152;28;20198;-80
2024/03/29 12:09:24;;;;;;;3.65;1.00;;;;;;;;;;5094231;28;20220;-81
2024/03/29 12:11:51;;;;;;;5.88;1.48;;;;;;;;;;5093713;28;20226;-80
2024/03/29 12:14:18;;;;;;;6.65;1.10;;;;;;;;;;5093390;28;20207;-80
2024/03/29 12:16:46;;;;;;;7.00;1.35;;;;;;;;;;5094188;28;20267;-81
2024/03/29 12:19:23;;;;;;;4.65;1.05;;;;;;;;;;5093351;28;20742;-81
2024/03/29 12:21:52;;;;;;;5.35;1.27;;;;;;;;;;5093432;28;20677;-81
2024/03/29 12:24:19;;;;;;;8.45;1.30;;;;;;;;;;5093559;28;20677;-81
2024/03/29 12:26:47;;;;;;;7.90;1.15;;;;;;;;;;5093749;28;20194;-81
2024/03/29 12:29:15;;;;;;;5.35;1.35;;;;;;;;;;5093855;28;20260;-81
2024/03/29 12:31:42;;;;;;;5.07;1.10;;;;;;;;;;5093684;28;20222;-80
2024/03/29 12:34:09;;;;;;;4.57;1.23;;;;;;;;;;5092596;28;20667;-79
2024/03/29 12:36:36;;;;;;;7.65;1.33;;;;;;;;;;5093742;28;20247;-79
2024/03/29 12:39:05;;;;;;;8.75;1.35;;;;;;;;;;5093333;28;20198;-80
2024/03/29 12:41:34;;;;;;;6.22;1.23;;;;;;;;;;5093181;28;20190;-80
2024/03/29 12:44:02;;;;;;;5.57;1.13;;;;;;;;;;5093581;28;20199;-80
2024/03/29 12:46:29;;;;;;;4.22;1.00;;;;;;;;;;5092964;28;20203;-80
2024/03/29 12:49:00;;;;;;;5.13;1.50;;;;;;;;;;5092785;28;20217;-80
2024/03/29 12:51:29;;;;;;;4.28;1.10;;;;;;;;;;5093029;28;20240;-80
2024/03/29 12:54:00;;;;;;;4.75;1.00;;;;;;;;;;5093396;28;20200;-80
2024/03/29 12:56:28;;;;;;;5.45;1.20;;;;;;;;;;5093217;28;20199;-80
2024/03/29 12:58:56;;;;;;;6.43;1.13;;;;;;;;;;5093065;28;20194;-79
2024/03/29 13:01:22;;;;;;;6.15;1.30;;;;;;;;;;5093135;28;20248;-80
2024/03/29 13:03:49;;;;;;;4.93;1.10;;;;;;;;;;5092895;28;20209;-80
2024/03/29 13:06:17;;;;;;;4.13;1.23;;;;;;;;;;5092793;28;20191;-80
2024/03/29 13:08:45;;;;;;;6.38;1.02;;;;;;;;;;5093063;28;20198;-79
2024/03/29 13:11:12;;;;;;;3.83;0.88;;;;;;;;;;5092682;28;20218;-79
2024/03/29 13:13:41;;;;;;;6.70;1.52;;;;;;;;;;5093129;28;20220;-80
2024/03/29 13:16:08;;;;;;;4.00;1.00;;;;;;;;;;5091658;28;20206;-80
2024/03/29 13:18:35;;;;;;;4.72;1.08;;;;;;;;;;5092231;28;20198;-80
2024/03/29 13:21:02;;;;;;;7.28;1.25;;;;;;;;;;5092490;28;20618;-80
2024/03/29 13:23:32;;;;;;;3.85;1.23;;;;;;;;;;5092414;28;20203;-80
2024/03/29 13:26:00;;;;;;;4.63;1.00;;;;;;;;;;5092119;28;20295;-81
2024/03/29 13:28:27;;;;;;;4.07;1.08;;;;;;;;;;5093039;28;20239;-79
2024/03/29 13:30:56;;;;;;;4.90;1.27;;;;;;;;;;5092496;28;20257;-79
2024/03/29 13:33:24;;;;;;;5.70;0.90;;;;;;;;;;5092191;28;20195;-79
2024/03/29 13:35:56;;;;;;;7.68;1.05;;;;;;;;;;5092415;28;20256;-79
2024/03/29 13:38:26;;;;;;;7.78;1.60;;;;;;;;;;5092204;28;20659;-79
2024/03/29 13:40:54;;;;;;;7.55;1.50;;;;;;;;;;5092428;28;20221;-80
2024/03/29 13:43:22;;;;;;;6.10;1.20;;;;;;;;;;5092311;28;20214;-80
2024/03/29 13:45:50;;;;;;;6.93;1.50;;;;;;;;;;5092205;28;20289;-79
2024/03/29 13:48:19;;;;;;;6.00;1.38;;;;;;;;;;5091914;28;20690;-80
2024/03/29 13:50:46;;;;;;;4.80;0.95;;;;;;;;;;5091773;28;20272;-80
2024/03/29 13:53:15;;;;;;;4.72;1.10;;;;;;;;;;5092604;28;20202;-80
2024/03/29 13:55:42;;;;;;;7.32;1.17;;;;;;;;;;5092153;28;20200;-79
2024/03/29 13:58:09;;;;;;;8.57;1.30;;;;;;;;;;5091915;28;20202;-80
2024/03/29 14:00:36;;;;;;;5.03;1.00;;;;;;;;;;5091586;28;20194;-80
2024/03/29 14:03:04;;;;;;;5.07;1.17;;;;;;;;;;5091890;28;20210;-80
2024/03/29 14:05:33;;;;;;;7.43;1.52;;;;;;;;;;5091899;28;20558;-79
2024/03/29 14:08:00;;;;;;;5.70;1.10;;;;;;;;;;5091937;28;20289;-80
2024/03/29 14:10:28;;;;;;;6.57;1.23;;;;;;;;;;5091507;28;20198;-80
2024/03/29 14:12:56;;;;;;;5.72;1.33;;;;;;;;;;5091586;28;20255;-80
2024/03/29 14:15:24;;;;;;;6.00;1.52;;;;;;;;;;5091276;28;20571;-79
2024/03/29 14:17:51;;;;;;;6.57;1.33;;;;;;;;;;5090978;28;20256;-80
2024/03/29 14:20:19;;;;;;;3.78;1.25;;;;;;;;;;5091679;28;20194;-79
2024/03/29 14:22:52;;;;;;;5.85;1.42;;;;;;;;;;5091720;28;20255;-80
2024/03/29 14:25:19;;;;;;;4.25;1.30;;;;;;;;;;5091337;28;20234;-80
2024/03/29 14:27:54;;;;;;;6.22;1.17;;;;;;;;;;5091349;28;20220;-79
2024/03/29 14:30:21;;;;;;;4.60;0.90;;;;;;;;;;5091320;28;20221;-80
2024/03/29 14:32:49;;;;;;;4.95;1.02;;;;;;;;;;5091769;28;20253;-80
2024/03/29 14:35:16;;;;;;;3.50;0.95;;;;;;;;;;5091275;28;20251;-79
2024/03/29 14:37:44;;;;;;;5.40;1.13;;;;;;;;;;5091534;28;20194;-79
2024/03/29 14:40:14;;;;;;;4.28;0.90;;;;;;;;;;5091632;28;20255;-79
2024/03/29 14:42:41;;;;;;;5.18;1.30;;;;;;;;;;5091054;28;20238;-79
2024/03/29 14:45:11;;;;;;;3.63;1.20;;;;;;;;;;5091379;28;20236;-80
2024/03/29 14:47:38;;;;;;;4.40;1.15;;;;;;;;;;5091289;28;20744;-79
2024/03/29 14:50:08;;;;;;;4.53;0.82;;;;;;;;;;5090893;28;20251;-80
2024/03/29 14:52:35;;;;;;;7.32;1.23;;;;;;;;;;5091369;28;20230;-79
2024/03/29 14:55:02;;;;;;;5.90;1.20;;;;;;;;;;5091657;28;20203;-80
2024/03/29 14:57:30;;;;;;;4.68;1.40;;;;;;;;;;5090950;28;20206;-79
2024/03/29 14:59:57;;;;;;;6.22;1.23;;;;;;;;;;5091110;28;20198;-79
2024/03/29 15:02:24;;;;;;;6.25;1.33;;;;;;;;;;5091165;28;20671;-80
2024/03/29 15:04:52;;;;;;;5.05;1.08;;;;;;;;;;5091507;28;20283;-79
2024/03/29 15:07:20;;;;;;;5.78;1.17;;;;;;;;;;5091320;28;20244;-79
2024/03/29 15:09:46;;;;;;;6.15;1.27;;;;;;;;;;5091332;28;20202;-79
2024/03/29 15:12:13;;;;;;;6.53;1.40;;;;;;;;;;5090662;28;20283;-78
2024/03/29 15:14:42;;;;;;;7.07;1.48;;;;;;;;;;5090802;28;20233;-80
2024/03/29 15:17:09;;;;;;;6.63;2.10;;;;;;;;;;5090936;28;20769;-79
2024/03/29 15:19:36;;;;;;;6.10;1.47;;;;;;;;;;5091093;28;20222;-81
2024/03/29 15:22:04;;;;;;;6.83;1.50;;;;;;;;;;5091106;28;20194;-80
2024/03/29 15:24:31;;;;;;;6.83;1.60;;;;;;;;;;5090837;28;20249;-79
2024/03/29 15:26:59;;;;;;;7.70;1.20;;;;;;;;;;5091086;28;20275;-79
2024/03/29 15:29:25;;;;;;;9.93;1.80;;;;;;;;;;5090830;28;20655;-79
2024/03/29 15:31:56;;;;;;;9.73;2.40;;;;;;;;;;5091036;28;20722;-79
2024/03/29 15:34:23;;;;;;;7.17;1.50;;;;;;;;;;5091037;28;20630;-79
2024/03/29 15:36:50;;;;;;;6.07;1.37;;;;;;;;;;5090689;28;20285;-80
2024/03/29 15:39:20;;;;;;;8.97;1.40;;;;;;;;;;5091131;28;20226;-79
2024/03/29 15:41:48;;;;;;;7.77;1.50;;;;;;;;;;5094567;28;20199;-79
2024/03/29 15:44:16;;;;;;;6.13;1.73;;;;;;;;;;5094108;28;20198;-79
2024/03/29 15:46:44;;;;;;;6.10;1.70;;;;;;;;;;5094769;28;20285;-78
2024/03/29 15:49:13;;;;;;;8.63;1.53;;;;;;;;;;5094099;28;20217;-80
2024/03/29 15:51:40;;;;;;;6.23;1.40;;;;;;;;;;5094370;28;20326;-80
2024/03/29 15:54:11;;;;;;;6.97;1.93;;;;;;;;;;5094442;28;20222;-79
2024/03/29 15:56:38;;;;;;;6.90;1.50;;;;;;;;;;5093633;28;20195;-79
2024/03/29 15:59:05;;;;;;;3.67;0.83;;;;;;;;;;5093976;28;20672;-80
2024/03/29 16:01:32;;;;;;;9.00;1.40;;;;;;;;;;5094327;28;20194;-79
2024/03/29 16:04:00;;;;;;;5.17;1.37;;;;;;;;;;5094028;28;20194;-79
2024/03/29 16:06:28;;;;;;;4.73;1.23;;;;;;;;;;5094171;28;20200;-79
2024/03/29 16:08:55;;;;;;;5.43;1.30;;;;;;;;;;5093932;28;20240;-79
2024/03/29 16:11:22;;;;;;;7.47;1.60;;;;;;;;;;5092731;28;20233;-79
2024/03/29 16:13:49;;;;;;;7.77;1.70;;;;;;;;;;5093636;28;20199;-79
2024/03/29 16:16:15;;;;;;;5.38;1.60;;;;;;;;;;5094029;28;20568;-79
2024/03/29 16:18:43;;;;;;;8.43;1.47;;;;;;;;;;5094092;28;20198;-79
2024/03/29 16:21:09;;;;;;;7.20;1.60;;;;;;;;;;5093490;28;20631;-79
2024/03/29 16:23:37;;;;;;;5.80;1.83;;;;;;;;;;5093934;28;20202;-79
2024/03/29 16:26:04;;;;;;;7.37;2.20;;;;;;;;;;5092925;28;20230;-80
2024/03/29 16:28:31;;;;;;;9.33;2.40;;;;;;;;;;5093710;28;20742;-79
2024/03/29 16:30:57;;;;;;;8.43;1.93;;;;;;;;;;5093238;28;20194;-80
2024/03/29 16:33:25;;;;;;;8.57;2.43;;;;;;;;;;5093440;28;20222;-79
2024/03/29 16:35:53;;;;;;;7.30;1.90;;;;;;;;;;5093302;28;20545;-79